Arca — PDHT — position and weather

sailwx.info

Track history (hours):
 
Tides and Currents Weather Stations Pressure Air Temp Water Temp Dewpoint Dewpoint Depression Visibility Wind Speed Wind Dir Waves Ship Positions

Oceanographic research ship Arca (Netherlands)

Detailed information on ship capabilities available from University of Delaware's Ocean Information Center.

Last reported at 2014-Jul-28 03:26 UTC. Time now 2014-Jul-28 04:21 UTC.
Position N 52°06' E 004°16'.

Length 83 m; draft 4.8 m.

Type: Law enforcement. MMSI: 244454000.

Date/timePositionNaut miles runAvg speedWind from/ knotsBaromVisibWave heightAir tempDewpointWater temp
2014-Jul-28 03:26N 52°06' E 004°16'0 0.0
2014-Jul-28 02:26N 52°06' E 004°16'0 0.0
2014-Jul-28 01:26N 52°06' E 004°16'0 0.0
2014-Jul-28 00:32N 52°06' E 004°16'0 0.0
2014-Jul-27 23:32N 52°06' E 004°16'0 0.0
2014-Jul-27 22:23N 52°06' E 004°16'0 0.0
2014-Jul-27 21:32N 52°06' E 004°16'0 0.0
2014-Jul-27 20:32N 52°06' E 004°16'0 0.0
2014-Jul-27 19:32N 52°06' E 004°16'0 0.0
2014-Jul-27 18:32N 52°06' E 004°16'0 0.0
2014-Jul-27 17:32N 52°06' E 004°16'0 0.0
2014-Jul-27 16:29N 52°06' E 004°16'0 0.0
2014-Jul-27 15:32N 52°06' E 004°16'0 0.0
2014-Jul-27 13:17N 52°06' E 004°16'0 0.0
2014-Jul-27 07:11N 52°06' E 004°16'0 0.0
2014-Jul-27 05:05N 52°06' E 004°16'0 0.0
2014-Jul-27 03:29N 52°06' E 004°16'0 0.0
2014-Jul-26 21:26N 52°06' E 004°16'0 0.0
2014-Jul-26 20:20N 52°06' E 004°16'0 0.0
2014-Jul-26 19:26N 52°06' E 004°16'0 0.0
2014-Jul-26 18:29N 52°06' E 004°16'0 0.0
2014-Jul-26 15:11N 52°06' E 004°16'0 0.0
2014-Jul-26 11:17N 52°06' E 004°16'0 0.0
2014-Jul-26 00:14N 52°06' E 004°16'0 0.0
2014-Jul-25 22:17N 52°06' E 004°16'0 0.0
2014-Jul-25 21:29N 52°06' E 004°16'0 0.0
2014-Jul-25 19:29N 52°06' E 004°16'0 0.0
2014-Jul-25 18:32N 52°06' E 004°16'0 0.0
2014-Jul-25 11:20N 52°06' E 004°16'0 0.0
2014-Jul-25 10:32N 52°06' E 004°16'8 7.8
2014-Jul-25 09:34N 52°07' E 004°03'9 9.4
2014-Jul-25 08:33N 52°08' E 003°48'6 5.9
2014-Jul-25 07:31N 52°09' E 003°38'0 0.3
2014-Jul-25 06:31N 52°09' E 003°38'1 1.4
2014-Jul-25 05:32N 52°08' E 003°40'0 0.1
2014-Jul-25 04:29N 52°08' E 003°40'0 0.0
2014-Jul-25 03:29N 52°08' E 003°40'0 0.0
2014-Jul-25 02:20N 52°08' E 003°40'0 0.0
2014-Jul-25 00:20N 52°09' E 003°40'0 0.1
2014-Jul-24 23:29N 52°08' E 003°40'0 0.0
2014-Jul-24 22:23N 52°08' E 003°40'0 0.0
2014-Jul-24 21:29N 52°08' E 003°40'0 0.0
2014-Jul-24 20:32N 52°08' E 003°40'0 0.0
2014-Jul-24 19:32N 52°08' E 003°40'1 1.3
2014-Jul-24 18:33N 52°08' E 003°38'0 0.3
2014-Jul-24 17:33N 52°09' E 003°38'1 1.3
2014-Jul-24 16:33N 52°08' E 003°37'9 9.1
2014-Jul-24 15:33N 52°03' E 003°25'1111.5
2014-Jul-24 14:34N 51°56' E 003°09'0 0.2
2014-Jul-24 13:33N 51°56' E 003°09'1 0.7
2014-Jul-24 12:34N 51°55' E 003°09'8 8.3
2014-Jul-24 11:33N 52°00' E 003°20'1212.0
2014-Jul-24 10:33N 52°04' E 003°38'1313.2
2014-Jul-24 09:33N 52°06' E 003°59'10 0.7
2014-Jul-23 18:27N 52°06' E 004°16'7 7.9
2014-Jul-23 17:33N 52°05' E 004°04'1111.2
2014-Jul-23 16:33N 52°01' E 003°47'1211.6
2014-Jul-23 15:33N 51°59' E 003°28'1110.7
2014-Jul-23 14:32N 51°57' E 003°11'9 8.7
2014-Jul-23 13:33N 51°56' E 002°57'1 0.5
2014-Jul-23 12:33N 51°56' E 002°58'1 1.1
2014-Jul-23 11:31N 51°55' E 002°56'3 3.3
2014-Jul-23 10:31N 51°56' E 003°01'1211.8
2014-Jul-23 09:28N 51°57' E 003°21'8 7.6
2014-Jul-23 08:28N 51°53' E 003°32'1 0.8
2014-Jul-23 07:31N 51°54' E 003°32'1 0.7
2014-Jul-23 06:33N 51°53' E 003°32'0 0.3
2014-Jul-23 05:10N 51°54' E 003°31'0 0.0
2014-Jul-23 04:31N 51°54' E 003°31'0 0.0
2014-Jul-23 03:22N 51°54' E 003°31'0 0.0
2014-Jul-23 02:25N 51°54' E 003°31'0 0.1
2014-Jul-23 01:28N 51°54' E 003°32'0 0.0
2014-Jul-23 00:31N 51°54' E 003°31'0 0.0
2014-Jul-22 23:25N 51°54' E 003°31'0 0.0
2014-Jul-22 22:31N 51°54' E 003°32'0 0.1
2014-Jul-22 21:31N 51°54' E 003°31'0 0.0
2014-Jul-22 20:28N 51°54' E 003°31'0 0.0
2014-Jul-22 19:32N 51°54' E 003°31'0 0.0
2014-Jul-22 18:31N 51°54' E 003°31'0 0.0
2014-Jul-22 17:33N 51°54' E 003°31'0 0.1
2014-Jul-22 16:33N 51°54' E 003°31'4 4.0
2014-Jul-22 15:32N 51°57' E 003°36'1111.7
2014-Jul-22 14:33N 52°08' E 003°31'2 2.1
2014-Jul-22 13:33N 52°10' E 003°33'0 0.3
2014-Jul-22 12:33N 52°10' E 003°33'2 1.5
2014-Jul-22 11:33N 52°11' E 003°32'1111.1
2014-Jul-22 10:33N 52°22' E 003°30'5 4.5
2014-Jul-22 09:32N 52°27' E 003°31'0 0.3
2014-Jul-22 08:34N 52°26' E 003°31'3 2.6
2014-Jul-22 07:32N 52°28' E 003°35'0 0.2
2014-Jul-22 06:27N 52°28' E 003°35'4 3.9
2014-Jul-22 05:31N 52°27' E 003°41'9 0.9
2014-Jul-21 19:26N 52°31' E 003°54'1112.7
2014-Jul-21 18:33N 52°38' E 004°07'1211.6
2014-Jul-21 17:32N 52°50' E 004°09'1 1.2
2014-Jul-21 16:29N 52°51' E 004°10'0 0.1
2014-Jul-21 15:18N 52°51' E 004°11'5 1.6
2014-Jul-21 12:24N 52°46' E 004°11'1112.9
2014-Jul-21 11:32N 52°35' E 004°11'1212.7
2014-Jul-21 10:33N 52°23' E 004°14'1312.9
2014-Jul-21 09:33N 52°10' E 004°15'4 3.7
2014-Jul-21 08:29N 52°06' E 004°16'0 0.0
2014-Jul-21 07:32N 52°06' E 004°16'0 0.0
2014-Jul-21 06:32N 52°06' E 004°16'0 0.0
2014-Jul-21 05:32N 52°06' E 004°16'0 0.0
2014-Jul-21 04:32N 52°06' E 004°16'0 0.0
2014-Jul-21 03:32N 52°06' E 004°16'0 0.0
2014-Jul-21 02:32N 52°06' E 004°16'0 0.0
2014-Jul-21 01:32N 52°06' E 004°16'0 0.0
2014-Jul-21 00:29N 52°06' E 004°16'0 0.0
2014-Jul-20 23:32N 52°06' E 004°16'0 0.0
2014-Jul-20 22:32N 52°06' E 004°16'0 0.0
2014-Jul-20 21:32N 52°06' E 004°16'0 0.0
2014-Jul-20 20:32N 52°06' E 004°16'0 0.0
2014-Jul-20 19:32N 52°06' E 004°16'0 0.0
2014-Jul-20 18:32N 52°06' E 004°16'0 0.0
2014-Jul-20 17:32N 52°06' E 004°16'0 0.0
2014-Jul-20 16:32N 52°06' E 004°16'0 0.0
2014-Jul-20 15:32N 52°06' E 004°16'0 0.0
2014-Jul-20 14:32N 52°06' E 004°16'0 0.0
2014-Jul-20 13:32N 52°06' E 004°16'0 0.0
2014-Jul-20 12:29N 52°06' E 004°16'0 0.0
2014-Jul-20 11:29N 52°06' E 004°16'0 0.0
2014-Jul-20 10:32N 52°06' E 004°16'0 0.0
2014-Jul-20 09:32N 52°06' E 004°16'0 0.0
2014-Jul-20 08:32N 52°06' E 004°16'0 0.0
2014-Jul-20 07:32N 52°06' E 004°16'0 0.0
2014-Jul-20 06:29N 52°06' E 004°16'0 0.0
2014-Jul-20 05:32N 52°06' E 004°16'0 0.0
2014-Jul-20 04:17N 52°06' E 004°16'0 0.0
2014-Jul-20 03:32N 52°06' E 004°16'0 0.0
2014-Jul-20 02:32N 52°06' E 004°16'0 0.0
2014-Jul-20 01:32N 52°06' E 004°16'0 0.0
2014-Jul-20 00:29N 52°06' E 004°16'0 0.0
2014-Jul-19 23:32N 52°06' E 004°16'0 0.0
2014-Jul-19 22:29N 52°06' E 004°16'0 0.0
2014-Jul-19 21:29N 52°06' E 004°16'0 0.0
2014-Jul-19 20:32N 52°06' E 004°16'0 0.0
2014-Jul-19 19:23N 52°06' E 004°16'0 0.0
2014-Jul-19 18:29N 52°06' E 004°16'0 0.0
2014-Jul-19 17:29N 52°06' E 004°16'0 0.0
2014-Jul-19 16:32N 52°06' E 004°16'0 0.0
2014-Jul-19 15:32N 52°06' E 004°16'0 0.0
2014-Jul-19 14:32N 52°06' E 004°16'0 0.0
2014-Jul-19 13:32N 52°06' E 004°16'0 0.0
2014-Jul-19 12:32N 52°06' E 004°16'0 0.0
2014-Jul-19 11:32N 52°06' E 004°16'0 0.0
2014-Jul-19 10:29N 52°06' E 004°16'0 0.0
2014-Jul-19 09:32N 52°06' E 004°16'0 0.0
2014-Jul-19 08:32N 52°06' E 004°16'0 0.0
2014-Jul-19 07:32N 52°06' E 004°16'0 0.0
2014-Jul-19 06:32N 52°06' E 004°16'0 0.0
2014-Jul-19 05:32N 52°06' E 004°16'0 0.0
2014-Jul-19 04:32N 52°06' E 004°16'0 0.0
2014-Jul-19 03:32N 52°06' E 004°16'0 0.0
2014-Jul-19 02:32N 52°06' E 004°16'0 0.0
2014-Jul-19 01:32N 52°06' E 004°16'0 0.0
2014-Jul-19 00:32N 52°06' E 004°16'0 0.0
2014-Jul-18 23:29N 52°06' E 004°16'0 0.0
2014-Jul-18 22:23N 52°06' E 004°16'0 0.0
2014-Jul-18 21:32N 52°06' E 004°16'0 0.0
2014-Jul-18 20:26N 52°06' E 004°16'0 0.0
2014-Jul-18 19:32N 52°06' E 004°16'0 0.0
2014-Jul-18 18:27N 52°06' E 004°16'0 0.0
2014-Jul-18 17:27N 52°06' E 004°16'0 0.0
2014-Jul-18 16:33N 52°06' E 004°16'0 0.0
2014-Jul-18 14:33N 52°06' E 004°16'0 0.0
2014-Jul-18 13:33N 52°06' E 004°16'0 0.0
2014-Jul-18 12:33N 52°06' E 004°16'0 0.0
2014-Jul-18 11:33N 52°06' E 004°16'0 0.0
2014-Jul-18 10:33N 52°06' E 004°16'0 0.0
2014-Jul-18 09:33N 52°06' E 004°16'0 0.0
2014-Jul-18 08:27N 52°06' E 004°16'0 0.0
2014-Jul-18 07:33N 52°06' E 004°16'0 0.0
2014-Jul-18 06:27N 52°06' E 004°16'0 0.0
2014-Jul-18 05:33N 52°06' E 004°16'0 0.0
2014-Jul-18 04:33N 52°06' E 004°16'0 0.0
2014-Jul-18 03:33N 52°06' E 004°16'  
Track history (hours):
 
Tides and Currents Weather Stations Pressure Air Temp Water Temp Dewpoint Dewpoint Depression Visibility Wind Speed Wind Dir Waves Ship Positions

Oceanographic research ship Arca (Netherlands)

Detailed information on ship capabilities available from University of Delaware's Ocean Information Center.

Last reported at 2014-Jul-28 03:26 UTC. Time now 2014-Jul-28 04:21 UTC.
Position N 52°06' E 004°16'.

Length 83 m; draft 4.8 m.

Type: Law enforcement. MMSI: 244454000.

Date/timePositionNaut miles runAvg speedWind from/ knotsBaromVisibWave heightAir tempDewpointWater temp
2014-Jul-28 03:26N 52°06' E 004°16'0 0.0
2014-Jul-28 02:26N 52°06' E 004°16'0 0.0
2014-Jul-28 01:26N 52°06' E 004°16'0 0.0
2014-Jul-28 00:32N 52°06' E 004°16'0 0.0
2014-Jul-27 23:32N 52°06' E 004°16'0 0.0
2014-Jul-27 22:23N 52°06' E 004°16'0 0.0
2014-Jul-27 21:32N 52°06' E 004°16'0 0.0
2014-Jul-27 20:32N 52°06' E 004°16'0 0.0
2014-Jul-27 19:32N 52°06' E 004°16'0 0.0
2014-Jul-27 18:32N 52°06' E 004°16'0 0.0
2014-Jul-27 17:32N 52°06' E 004°16'0 0.0
2014-Jul-27 16:29N 52°06' E 004°16'0 0.0
2014-Jul-27 15:32N 52°06' E 004°16'0 0.0
2014-Jul-27 13:17N 52°06' E 004°16'0 0.0
2014-Jul-27 07:11N 52°06' E 004°16'0 0.0
2014-Jul-27 05:05N 52°06' E 004°16'0 0.0
2014-Jul-27 03:29N 52°06' E 004°16'0 0.0
2014-Jul-26 21:26N 52°06' E 004°16'0 0.0
2014-Jul-26 20:20N 52°06' E 004°16'0 0.0
2014-Jul-26 19:26N 52°06' E 004°16'0 0.0
2014-Jul-26 18:29N 52°06' E 004°16'0 0.0
2014-Jul-26 15:11N 52°06' E 004°16'0 0.0
2014-Jul-26 11:17N 52°06' E 004°16'0 0.0
2014-Jul-26 00:14N 52°06' E 004°16'0 0.0
2014-Jul-25 22:17N 52°06' E 004°16'0 0.0
2014-Jul-25 21:29N 52°06' E 004°16'0 0.0
2014-Jul-25 19:29N 52°06' E 004°16'0 0.0
2014-Jul-25 18:32N 52°06' E 004°16'0 0.0
2014-Jul-25 11:20N 52°06' E 004°16'0 0.0
2014-Jul-25 10:32N 52°06' E 004°16'8 7.8
2014-Jul-25 09:34N 52°07' E 004°03'9 9.4
2014-Jul-25 08:33N 52°08' E 003°48'6 5.9
2014-Jul-25 07:31N 52°09' E 003°38'0 0.3
2014-Jul-25 06:31N 52°09' E 003°38'1 1.4
2014-Jul-25 05:32N 52°08' E 003°40'0 0.1
2014-Jul-25 04:29N 52°08' E 003°40'0 0.0
2014-Jul-25 03:29N 52°08' E 003°40'0 0.0
2014-Jul-25 02:20N 52°08' E 003°40'0 0.0
2014-Jul-25 00:20N 52°09' E 003°40'0 0.1
2014-Jul-24 23:29N 52°08' E 003°40'0 0.0
2014-Jul-24 22:23N 52°08' E 003°40'0 0.0
2014-Jul-24 21:29N 52°08' E 003°40'0 0.0
2014-Jul-24 20:32N 52°08' E 003°40'0 0.0
2014-Jul-24 19:32N 52°08' E 003°40'1 1.3
2014-Jul-24 18:33N 52°08' E 003°38'0 0.3
2014-Jul-24 17:33N 52°09' E 003°38'1 1.3
2014-Jul-24 16:33N 52°08' E 003°37'9 9.1
2014-Jul-24 15:33N 52°03' E 003°25'1111.5
2014-Jul-24 14:34N 51°56' E 003°09'0 0.2
2014-Jul-24 13:33N 51°56' E 003°09'1 0.7
2014-Jul-24 12:34N 51°55' E 003°09'8 8.3
2014-Jul-24 11:33N 52°00' E 003°20'1212.0
2014-Jul-24 10:33N 52°04' E 003°38'1313.2
2014-Jul-24 09:33N 52°06' E 003°59'10 0.7
2014-Jul-23 18:27N 52°06' E 004°16'7 7.9
2014-Jul-23 17:33N 52°05' E 004°04'1111.2
2014-Jul-23 16:33N 52°01' E 003°47'1211.6
2014-Jul-23 15:33N 51°59' E 003°28'1110.7
2014-Jul-23 14:32N 51°57' E 003°11'9 8.7
2014-Jul-23 13:33N 51°56' E 002°57'1 0.5
2014-Jul-23 12:33N 51°56' E 002°58'1 1.1
2014-Jul-23 11:31N 51°55' E 002°56'3 3.3
2014-Jul-23 10:31N 51°56' E 003°01'1211.8
2014-Jul-23 09:28N 51°57' E 003°21'8 7.6
2014-Jul-23 08:28N 51°53' E 003°32'1 0.8
2014-Jul-23 07:31N 51°54' E 003°32'1 0.7
2014-Jul-23 06:33N 51°53' E 003°32'0 0.3
2014-Jul-23 05:10N 51°54' E 003°31'0 0.0
2014-Jul-23 04:31N 51°54' E 003°31'0 0.0
2014-Jul-23 03:22N 51°54' E 003°31'0 0.0
2014-Jul-23 02:25N 51°54' E 003°31'0 0.1
2014-Jul-23 01:28N 51°54' E 003°32'0 0.0
2014-Jul-23 00:31N 51°54' E 003°31'0 0.0
2014-Jul-22 23:25N 51°54' E 003°31'0 0.0
2014-Jul-22 22:31N 51°54' E 003°32'0 0.1
2014-Jul-22 21:31N 51°54' E 003°31'0 0.0
2014-Jul-22 20:28N 51°54' E 003°31'0 0.0
2014-Jul-22 19:32N 51°54' E 003°31'0 0.0
2014-Jul-22 18:31N 51°54' E 003°31'0 0.0
2014-Jul-22 17:33N 51°54' E 003°31'0 0.1
2014-Jul-22 16:33N 51°54' E 003°31'4 4.0
2014-Jul-22 15:32N 51°57' E 003°36'1111.7
2014-Jul-22 14:33N 52°08' E 003°31'2 2.1
2014-Jul-22 13:33N 52°10' E 003°33'0 0.3
2014-Jul-22 12:33N 52°10' E 003°33'2 1.5
2014-Jul-22 11:33N 52°11' E 003°32'1111.1
2014-Jul-22 10:33N 52°22' E 003°30'5 4.5
2014-Jul-22 09:32N 52°27' E 003°31'0 0.3
2014-Jul-22 08:34N 52°26' E 003°31'3 2.6
2014-Jul-22 07:32N 52°28' E 003°35'0 0.2
2014-Jul-22 06:27N 52°28' E 003°35'4 3.9
2014-Jul-22 05:31N 52°27' E 003°41'9 0.9
2014-Jul-21 19:26N 52°31' E 003°54'1112.7
2014-Jul-21 18:33N 52°38' E 004°07'1211.6
2014-Jul-21 17:32N 52°50' E 004°09'1 1.2
2014-Jul-21 16:29N 52°51' E 004°10'0 0.1
2014-Jul-21 15:18N 52°51' E 004°11'5 1.6
2014-Jul-21 12:24N 52°46' E 004°11'1112.9
2014-Jul-21 11:32N 52°35' E 004°11'1212.7
2014-Jul-21 10:33N 52°23' E 004°14'1312.9
2014-Jul-21 09:33N 52°10' E 004°15'4 3.7
2014-Jul-21 08:29N 52°06' E 004°16'0 0.0
2014-Jul-21 07:32N 52°06' E 004°16'0 0.0
2014-Jul-21 06:32N 52°06' E 004°16'0 0.0
2014-Jul-21 05:32N 52°06' E 004°16'0 0.0
2014-Jul-21 04:32N 52°06' E 004°16'0 0.0
2014-Jul-21 03:32N 52°06' E 004°16'0 0.0
2014-Jul-21 02:32N 52°06' E 004°16'0 0.0
2014-Jul-21 01:32N 52°06' E 004°16'0 0.0
2014-Jul-21 00:29N 52°06' E 004°16'0 0.0
2014-Jul-20 23:32N 52°06' E 004°16'0 0.0
2014-Jul-20 22:32N 52°06' E 004°16'0 0.0
2014-Jul-20 21:32N 52°06' E 004°16'0 0.0
2014-Jul-20 20:32N 52°06' E 004°16'0 0.0
2014-Jul-20 19:32N 52°06' E 004°16'0 0.0
2014-Jul-20 18:32N 52°06' E 004°16'0 0.0
2014-Jul-20 17:32N 52°06' E 004°16'0 0.0
2014-Jul-20 16:32N 52°06' E 004°16'0 0.0
2014-Jul-20 15:32N 52°06' E 004°16'0 0.0
2014-Jul-20 14:32N 52°06' E 004°16'0 0.0
2014-Jul-20 13:32N 52°06' E 004°16'0 0.0
2014-Jul-20 12:29N 52°06' E 004°16'0 0.0
2014-Jul-20 11:29N 52°06' E 004°16'0 0.0
2014-Jul-20 10:32N 52°06' E 004°16'0 0.0
2014-Jul-20 09:32N 52°06' E 004°16'0 0.0
2014-Jul-20 08:32N 52°06' E 004°16'0 0.0
2014-Jul-20 07:32N 52°06' E 004°16'0 0.0
2014-Jul-20 06:29N 52°06' E 004°16'0 0.0
2014-Jul-20 05:32N 52°06' E 004°16'0 0.0
2014-Jul-20 04:17N 52°06' E 004°16'0 0.0
2014-Jul-20 03:32N 52°06' E 004°16'0 0.0
2014-Jul-20 02:32N 52°06' E 004°16'0 0.0
2014-Jul-20 01:32N 52°06' E 004°16'0 0.0
2014-Jul-20 00:29N 52°06' E 004°16'0 0.0
2014-Jul-19 23:32N 52°06' E 004°16'0 0.0
2014-Jul-19 22:29N 52°06' E 004°16'0 0.0
2014-Jul-19 21:29N 52°06' E 004°16'0 0.0
2014-Jul-19 20:32N 52°06' E 004°16'0 0.0
2014-Jul-19 19:23N 52°06' E 004°16'0 0.0
2014-Jul-19 18:29N 52°06' E 004°16'0 0.0
2014-Jul-19 17:29N 52°06' E 004°16'0 0.0
2014-Jul-19 16:32N 52°06' E 004°16'0 0.0
2014-Jul-19 15:32N 52°06' E 004°16'0 0.0
2014-Jul-19 14:32N 52°06' E 004°16'0 0.0
2014-Jul-19 13:32N 52°06' E 004°16'0 0.0
2014-Jul-19 12:32N 52°06' E 004°16'0 0.0
2014-Jul-19 11:32N 52°06' E 004°16'0 0.0
2014-Jul-19 10:29N 52°06' E 004°16'0 0.0
2014-Jul-19 09:32N 52°06' E 004°16'0 0.0
2014-Jul-19 08:32N 52°06' E 004°16'0 0.0
2014-Jul-19 07:32N 52°06' E 004°16'0 0.0
2014-Jul-19 06:32N 52°06' E 004°16'0 0.0
2014-Jul-19 05:32N 52°06' E 004°16'0 0.0
2014-Jul-19 04:32N 52°06' E 004°16'0 0.0
2014-Jul-19 03:32N 52°06' E 004°16'0 0.0
2014-Jul-19 02:32N 52°06' E 004°16'0 0.0
2014-Jul-19 01:32N 52°06' E 004°16'0 0.0
2014-Jul-19 00:32N 52°06' E 004°16'0 0.0
2014-Jul-18 23:29N 52°06' E 004°16'0 0.0
2014-Jul-18 22:23N 52°06' E 004°16'0 0.0
2014-Jul-18 21:32N 52°06' E 004°16'0 0.0
2014-Jul-18 20:26N 52°06' E 004°16'0 0.0
2014-Jul-18 19:32N 52°06' E 004°16'0 0.0
2014-Jul-18 18:27N 52°06' E 004°16'0 0.0
2014-Jul-18 17:27N 52°06' E 004°16'0 0.0
2014-Jul-18 16:33N 52°06' E 004°16'0 0.0
2014-Jul-18 14:33N 52°06' E 004°16'0 0.0
2014-Jul-18 13:33N 52°06' E 004°16'0 0.0
2014-Jul-18 12:33N 52°06' E 004°16'0 0.0
2014-Jul-18 11:33N 52°06' E 004°16'0 0.0
2014-Jul-18 10:33N 52°06' E 004°16'0 0.0
2014-Jul-18 09:33N 52°06' E 004°16'0 0.0
2014-Jul-18 08:27N 52°06' E 004°16'0 0.0
2014-Jul-18 07:33N 52°06' E 004°16'0 0.0
2014-Jul-18 06:27N 52°06' E 004°16'0 0.0
2014-Jul-18 05:33N 52°06' E 004°16'0 0.0
2014-Jul-18 04:33N 52°06' E 004°16'0 0.0
2014-Jul-18 03:33N 52°06' E 004°16'  

Dump ship's entire track history